Time;durP1;ratioP1;P1;durP2;ratioP2;P2;SDS_P1;SDS_P2;PMS_P1;PMS_P2;Temp;Humidity;BMP_temperature;BMP_pressure;BME280_temperature;BME280_humidity;BME280_pressure;Samples;Min_cycle;Max_cycle;Signal;HPM_P1;HPM_P2
2021/01/15 00:00:42;;;;;;;22.30;7.20;;;;;;;-4.76;74.43;98484.17;1764070;79;21159;-57
2021/01/15 00:03:10;;;;;;;13.87;6.03;;;;;;;-4.73;74.45;98494.22;1761030;79;21223;-57
2021/01/15 00:05:40;;;;;;;21.00;6.27;;;;;;;-4.71;74.44;98496.84;1762233;79;21234;-57
2021/01/15 00:08:07;;;;;;;21.00;6.93;;;;;;;-4.70;74.38;98494.64;1762511;79;21215;-57
2021/01/15 00:10:35;;;;;;;22.50;7.57;;;;;;;-4.75;74.27;98488.09;1740945;80;21207;-57
2021/01/15 00:13:02;;;;;;;22.23;7.57;;;;;;;-4.81;74.33;98489.47;1763223;79;21166;-57
2021/01/15 00:15:30;;;;;;;22.20;7.83;;;;;;;-4.82;74.48;98494.28;1765599;79;22639;-57
2021/01/15 00:17:57;;;;;;;18.97;7.00;;;;;;;-4.84;74.24;98498.66;1765515;79;21166;-57
2021/01/15 00:20:24;;;;;;;16.77;6.57;;;;;;;-4.89;74.38;98493.03;1774678;78;21147;-56
2021/01/15 00:22:52;;;;;;;20.03;7.27;;;;;;;-4.89;74.46;98496.97;1765413;79;21136;-56
2021/01/15 00:25:19;;;;;;;16.30;6.80;;;;;;;-4.87;74.39;98489.52;1763453;79;21119;-57
2021/01/15 00:27:47;;;;;;;15.00;6.30;;;;;;;-4.85;74.42;98489.08;1763971;79;21350;-56
2021/01/15 00:30:14;;;;;;;17.53;7.70;;;;;;;-4.83;74.31;98488.59;1768275;79;21546;-56
2021/01/15 00:32:42;;;;;;;23.17;7.80;;;;;;;-4.81;74.45;98494.72;1763009;78;21131;-57
2021/01/15 00:35:10;;;;;;;24.77;8.20;;;;;;;-4.74;74.45;98497.72;1767273;78;21106;-56
2021/01/15 00:37:40;;;;;;;24.70;8.30;;;;;;;-4.73;74.12;98503.41;1770842;78;21107;-56
2021/01/15 00:40:09;;;;;;;17.33;6.77;;;;;;;-4.80;74.29;98501.71;1780434;78;21820;-56
2021/01/15 00:42:36;;;;;;;17.93;5.00;;;;;;;-4.76;74.49;98505.17;1770015;78;21233;-56
2021/01/15 00:45:05;;;;;;;14.70;5.37;;;;;;;-4.71;74.28;98502.96;1769770;78;21131;-56
2021/01/15 00:47:32;;;;;;;11.90;4.00;;;;;;;-4.69;73.79;98499.02;1771488;78;21182;-56
2021/01/15 00:50:00;;;;;;;11.17;3.60;;;;;;;-4.72;73.86;98504.28;1768360;78;21113;-56
2021/01/15 00:52:28;;;;;;;9.83;3.33;;;;;;;-4.72;73.96;98506.47;1746319;80;22113;-56
2021/01/15 00:54:55;;;;;;;7.80;2.97;;;;;;;-4.71;73.47;98507.34;1767453;78;21685;-56
2021/01/15 00:57:22;;;;;;;8.03;3.37;;;;;;;-4.78;73.36;98508.27;1784927;78;21130;-56
2021/01/15 00:59:49;;;;;;;13.37;3.77;;;;;;;-4.87;73.39;98510.95;1769841;78;21139;-56
2021/01/15 01:02:35;;;;;;;9.20;3.07;;;;;;;-4.85;73.44;98507.45;1823434;75;27550;-56
2021/01/15 01:05:04;;;;;;;7.83;2.73;;;;;;;-4.86;73.22;98508.77;1791412;77;20914;-56
2021/01/15 01:07:32;;;;;;;7.50;2.70;;;;;;;-4.86;73.00;98512.70;1793862;77;21489;-56
2021/01/15 01:09:59;;;;;;;8.63;3.30;;;;;;;-4.89;72.73;98506.16;1788520;77;21202;-56
2021/01/15 01:12:26;;;;;;;9.60;2.73;;;;;;;-4.95;72.53;98508.39;1786958;77;21187;-56
2021/01/15 01:14:54;;;;;;;10.37;3.63;;;;;;;-5.03;72.61;98508.44;1791989;77;21055;-57
2021/01/15 01:17:21;;;;;;;11.30;3.53;;;;;;;-5.04;72.55;98515.00;1787952;77;21468;-56
2021/01/15 01:19:48;;;;;;;10.40;4.00;;;;;;;-5.12;72.34;98517.67;1791134;77;22302;-56
2021/01/15 01:22:16;;;;;;;11.93;4.40;;;;;;;-5.18;72.47;98513.75;1791818;77;21191;-56
2021/01/15 01:24:43;;;;;;;14.87;6.30;;;;;;;-5.23;72.48;98517.29;1794939;77;20985;-56
2021/01/15 01:27:10;;;;;;;10.93;4.73;;;;;;;-5.26;72.50;98519.91;1788394;77;21847;-56
2021/01/15 01:29:37;;;;;;;13.60;4.83;;;;;;;-5.27;72.68;98522.14;1794135;77;21178;-56
2021/01/15 01:32:05;;;;;;;11.00;4.80;;;;;;;-5.23;72.65;98519.91;1787465;77;21616;-56
2021/01/15 01:34:32;;;;;;;13.30;4.23;;;;;;;-5.21;72.61;98528.66;1792947;77;21569;-55
2021/01/15 01:36:59;;;;;;;10.33;4.77;;;;;;;-5.19;72.57;98530.84;1792820;77;21119;-56
2021/01/15 01:39:27;;;;;;;11.83;5.10;;;;;;;-5.19;72.37;98529.53;1798852;77;21494;-56
2021/01/15 01:41:55;;;;;;;15.60;5.77;;;;;;;-5.18;72.28;98525.99;1785241;77;21119;-56
2021/01/15 01:44:22;;;;;;;13.67;6.13;;;;;;;-5.18;72.18;98533.86;1780283;78;21369;-56
2021/01/15 01:46:49;;;;;;;12.27;5.33;;;;;;;-5.20;72.27;98537.83;1776289;78;21596;-56
2021/01/15 01:49:16;;;;;;;11.23;4.30;;;;;;;-5.19;72.22;98536.09;1775421;78;21194;-55
2021/01/15 01:51:45;;;;;;;12.30;5.47;;;;;;;-5.22;72.34;98538.71;1747146;78;21789;-56
2021/01/15 01:54:12;;;;;;;7.70;2.97;;;;;;;-5.21;72.43;98540.46;1781513;78;21416;-56
2021/01/15 01:56:40;;;;;;;7.87;3.10;;;;;;;-5.18;72.54;98545.67;1776199;78;21801;-55
2021/01/15 01:59:08;;;;;;;9.27;2.77;;;;;;;-5.14;72.40;98551.34;1782131;78;21951;-56
2021/01/15 02:01:35;;;;;;;7.27;2.90;;;;;;;-5.13;72.34;98548.72;1774201;78;22204;-56
2021/01/15 02:04:03;;;;;;;7.23;2.43;;;;;;;-5.13;72.35;98551.78;1774886;78;21209;-56
2021/01/15 02:06:33;;;;;;;9.77;2.73;;;;;;;-5.14;72.25;98551.34;1777931;78;21186;-56
2021/01/15 02:09:05;;;;;;;6.97;3.10;;;;;;;-5.14;72.36;98550.03;1776490;78;21215;-56
2021/01/15 02:12:07;;;;;;;7.50;2.97;;;;;;;-5.17;72.16;98556.16;1771745;78;21186;-56
2021/01/15 02:14:59;;;;;;;10.03;3.27;;;;;;;-5.19;72.14;98554.45;1774880;78;21202;-56
2021/01/15 02:17:29;;;;;;;9.63;3.13;;;;;;;-5.21;72.31;98560.13;1773948;78;21182;-56
2021/01/15 02:20:39;;;;;;;8.33;3.87;;;;;;;-5.18;72.25;98560.09;1776785;78;21194;-55
2021/01/15 02:23:19;;;;;;;9.90;3.83;;;;;;;-5.19;72.11;98563.19;1771649;78;21198;-55
2021/01/15 02:26:08;;;;;;;12.33;3.43;;;;;;;-5.20;72.12;98567.13;1781477;78;21210;-55
2021/01/15 02:29:05;;;;;;;7.83;3.37;;;;;;;-5.22;72.16;98564.95;1732677;81;22295;-55
2021/01/15 02:31:59;;;;;;;7.63;2.80;;;;;;;-5.24;72.06;98563.63;1727590;80;21533;-54
2021/01/15 02:35:02;;;;;;;12.93;2.58;;;;;;;-5.31;71.95;98568.91;1742995;80;21142;-54
2021/01/15 02:38:04;;;;;;;7.73;2.70;;;;;;;-5.38;71.91;98567.64;1729856;80;21268;-54
2021/01/15 02:41:06;;;;;;;5.93;2.23;;;;;;;-5.42;72.04;98568.52;1747117;80;21219;-53
2021/01/15 02:43:34;;;;;;;5.97;2.37;;;;;;;-5.43;72.03;98569.39;1725546;81;21225;-54
2021/01/15 02:46:03;;;;;;;8.37;3.33;;;;;;;-5.47;72.03;98568.98;1724700;81;21396;-53
2021/01/15 02:48:31;;;;;;;10.73;4.13;;;;;;;-5.50;71.99;98581.22;1717182;81;21181;-53
2021/01/15 02:50:59;;;;;;;9.10;2.63;;;;;;;-5.60;71.67;98584.73;1723203;81;21205;-54
2021/01/15 02:53:27;;;;;;;7.83;3.07;;;;;;;-5.72;71.81;98585.66;1725591;81;21145;-54
2021/01/15 02:57:32;;;;;;;9.73;3.23;;;;;;;-5.73;72.08;98585.22;1797472;78;24662;-55
2021/01/15 02:59:59;;;;;;;9.10;2.77;;;;;;;-5.80;71.97;98579.56;1773560;79;20961;-55
2021/01/15 03:02:32;;;;;;;9.03;3.00;;;;;;;-5.80;71.89;98586.11;1767397;79;22347;-55
2021/01/15 03:05:10;;;;;;;11.63;3.27;;;;;;;-5.83;71.93;98588.30;1767345;79;21212;-54
2021/01/15 03:07:37;;;;;;;7.20;3.10;;;;;;;-5.85;72.01;98594.41;1774402;79;20976;-54
2021/01/15 03:10:05;;;;;;;11.90;3.50;;;;;;;-5.89;71.99;98597.52;1772052;79;21423;-54
2021/01/15 03:12:32;;;;;;;5.70;2.07;;;;;;;-5.91;72.02;98599.70;1769522;79;20994;-54
2021/01/15 03:15:00;;;;;;;9.50;3.20;;;;;;;-5.92;72.11;98605.38;1742813;80;21285;-54
2021/01/15 03:17:31;;;;;;;7.60;1.93;;;;;;;-5.93;72.08;98598.81;1769646;78;21212;-55
2021/01/15 03:19:59;;;;;;;8.83;2.67;;;;;;;-5.91;71.89;98598.39;1713219;81;21520;-56
2021/01/15 03:22:27;;;;;;;8.37;2.20;;;;;;;-5.91;71.80;98608.87;1679660;81;21906;-55
2021/01/15 03:24:56;;;;;;;8.13;2.03;;;;;;;-5.94;71.71;98604.49;1714247;81;21123;-55
2021/01/15 03:27:43;;;;;;;8.37;1.90;;;;;;;-6.01;71.41;98604.07;1733153;80;21978;-56
2021/01/15 03:30:14;;;;;;;7.47;2.20;;;;;;;-6.07;71.81;98601.90;1734187;81;22360;-56
2021/01/15 03:32:42;;;;;;;7.43;1.97;;;;;;;-6.08;71.99;98602.33;1734358;81;21108;-56
2021/01/15 03:35:22;;;;;;;7.33;1.93;;;;;;;-6.08;71.72;98605.39;1734517;81;21128;-54
2021/01/15 03:37:39;;;;;;;8.27;2.03;;;;;;;-6.14;71.97;98608.46;1715762;81;21175;-54
2021/01/15 03:40:07;;;;;;;5.33;1.63;;;;;;;-6.16;71.92;98605.39;1735380;81;21982;-54
2021/01/15 03:42:34;;;;;;;6.47;1.73;;;;;;;-6.21;72.04;98613.70;1686309;82;21171;-55
2021/01/15 03:45:02;;;;;;;7.73;1.77;;;;;;;-6.22;72.26;98615.45;1692012;82;21151;-55
2021/01/15 03:47:30;;;;;;;7.40;1.83;;;;;;;-6.20;72.36;98616.30;1691670;83;21140;-55
2021/01/15 03:49:58;;;;;;;4.80;1.67;;;;;;;-6.17;72.38;98618.92;1691342;83;21974;-55
2021/01/15 03:52:25;;;;;;;7.40;2.63;;;;;;;-6.14;72.36;98624.61;1692032;83;21391;-53
2021/01/15 03:54:52;;;;;;;6.00;1.97;;;;;;;-6.16;72.32;98625.04;1690847;83;21680;-56
2021/01/15 03:57:19;;;;;;;7.43;1.97;;;;;;;-6.18;72.22;98627.66;1676757;83;21136;-56
2021/01/15 03:59:47;;;;;;;6.20;2.40;;;;;;;-6.16;72.01;98631.59;1671896;83;21128;-54
2021/01/15 04:02:14;;;;;;;6.87;1.80;;;;;;;-6.21;71.85;98632.88;1738395;80;21120;-54
2021/01/15 04:04:44;;;;;;;12.27;2.27;;;;;;;-6.30;71.54;98638.58;1737680;80;21432;-56
2021/01/15 04:07:10;;;;;;;10.07;2.33;;;;;;;-6.41;71.80;98637.25;1736244;80;21188;-53
2021/01/15 04:09:38;;;;;;;5.80;1.47;;;;;;;-6.46;72.00;98635.03;1737841;80;21184;-56
2021/01/15 04:12:06;;;;;;;2.67;1.27;;;;;;;-6.49;71.92;98646.84;1733270;80;21661;-54
2021/01/15 04:14:33;;;;;;;5.27;1.30;;;;;;;-6.52;71.66;98643.77;1735206;80;21203;-56
2021/01/15 04:17:00;;;;;;;2.53;0.93;;;;;;;-6.58;71.45;98645.08;1731759;81;22357;-55
2021/01/15 04:19:28;;;;;;;6.40;1.00;;;;;;;-6.65;71.33;98645.06;1735193;80;21183;-55
2021/01/15 04:21:55;;;;;;;4.93;1.30;;;;;;;-6.72;71.32;98651.16;1733784;80;21621;-54
2021/01/15 04:24:24;;;;;;;7.20;1.30;;;;;;;-6.78;71.27;98650.69;1731168;80;21485;-54
2021/01/15 04:26:55;;;;;;;4.73;1.27;;;;;;;-6.80;71.29;98652.87;1733431;80;21791;-54
2021/01/15 04:29:23;;;;;;;3.60;1.30;;;;;;;-6.82;71.19;98650.69;1737304;80;21468;-55
2021/01/15 04:31:51;;;;;;;3.93;1.27;;;;;;;-6.82;71.33;98653.30;1732936;80;21200;-56
2021/01/15 04:34:19;;;;;;;3.83;1.20;;;;;;;-6.82;71.32;98650.25;1735223;80;21119;-54
2021/01/15 04:36:47;;;;;;;7.10;2.23;;;;;;;-6.81;71.42;98652.00;1737354;80;21768;-54
2021/01/15 04:39:14;;;;;;;2.90;1.40;;;;;;;-6.81;71.26;98657.67;1731458;80;21197;-55
2021/01/15 04:41:42;;;;;;;6.17;1.40;;;;;;;-6.81;71.40;98655.93;1732326;81;21382;-54
2021/01/15 04:44:10;;;;;;;5.43;1.10;;;;;;;-6.78;71.41;98661.58;1738251;81;21178;-53
2021/01/15 04:46:40;;;;;;;4.17;1.03;;;;;;;-6.76;71.32;98669.02;1733929;80;21219;-55
2021/01/15 04:49:11;;;;;;;8.53;1.80;;;;;;;-6.76;71.32;98674.25;1733796;80;21229;-56
2021/01/15 04:51:39;;;;;;;4.73;1.37;;;;;;;-6.76;71.37;98678.17;1699789;82;21184;-53
2021/01/15 04:54:11;;;;;;;7.00;1.33;;;;;;;-6.75;71.43;98676.88;1735167;80;21387;-55
2021/01/15 04:56:51;;;;;;;5.20;1.60;;;;;;;-6.73;71.50;98684.30;1729156;81;21211;-54
2021/01/15 04:59:18;;;;;;;4.17;1.30;;;;;;;-6.71;71.61;98688.20;1713006;82;21217;-53
2021/01/15 05:01:48;;;;;;;8.93;1.67;;;;;;;-6.72;71.43;98680.78;1708233;82;21249;-54
2021/01/15 05:04:18;;;;;;;6.77;2.00;;;;;;;-6.73;71.68;98686.92;1711139;82;21152;-55
2021/01/15 05:06:51;;;;;;;8.67;2.37;;;;;;;-6.72;71.54;98689.10;1712501;82;22092;-53
2021/01/15 05:09:24;;;;;;;13.27;3.07;;;;;;;-6.76;71.72;98689.52;1682459;82;21124;-55
2021/01/15 05:11:52;;;;;;;12.57;2.47;;;;;;;-6.75;71.94;98685.16;1714988;82;21484;-54
2021/01/15 05:14:20;;;;;;;7.03;2.13;;;;;;;-6.73;71.85;98690.84;1713053;82;21218;-54
2021/01/15 05:16:49;;;;;;;5.80;1.90;;;;;;;-6.75;71.79;98695.19;1708928;82;21198;-53
2021/01/15 05:19:17;;;;;;;4.17;1.50;;;;;;;-6.85;71.86;98701.69;1713688;82;21849;-55
2021/01/15 05:21:50;;;;;;;4.33;1.20;;;;;;;-6.98;71.70;98701.66;1711708;82;21179;-53
2021/01/15 05:24:14;;;;;;;4.77;1.33;;;;;;;-7.06;72.06;98707.25;1715108;82;21566;-55
2021/01/15 05:26:41;;;;;;;4.10;1.67;;;;;;;-7.09;72.03;98706.37;1677313;82;21268;-54
2021/01/15 05:29:08;;;;;;;5.73;1.60;;;;;;;-7.12;71.96;98711.16;1710199;82;21280;-53
2021/01/15 05:31:56;;;;;;;3.70;1.20;;;;;;;-7.21;71.88;98711.10;1713581;82;21803;-52
2021/01/15 05:34:24;;;;;;;5.50;1.40;;;;;;;-7.31;72.15;98721.06;1714677;82;21127;-53
2021/01/15 05:36:52;;;;;;;4.67;1.40;;;;;;;-7.34;72.36;98718.45;1712891;82;21151;-54
2021/01/15 05:39:25;;;;;;;6.20;1.70;;;;;;;-7.33;72.32;98730.66;1717438;82;21096;-53
2021/01/15 05:42:01;;;;;;;7.00;1.73;;;;;;;-7.32;72.60;98729.36;1717170;82;21166;-54
2021/01/15 05:44:30;;;;;;;5.60;2.03;;;;;;;-7.26;72.62;98733.75;1714594;82;21378;-53
2021/01/15 05:46:59;;;;;;;8.47;1.70;;;;;;;-7.25;72.31;98734.19;1715366;82;21246;-52
2021/01/15 05:49:28;;;;;;;9.13;2.10;;;;;;;-7.24;72.65;98737.25;1677849;82;21420;-53
2021/01/15 05:52:08;;;;;;;7.50;2.03;;;;;;;-7.24;72.62;98739.87;1712829;82;21235;-53
2021/01/15 05:54:35;;;;;;;7.83;1.73;;;;;;;-7.22;72.85;98734.63;1715641;82;21204;-53
2021/01/15 05:57:04;;;;;;;9.77;2.13;;;;;;;-7.16;72.84;98742.09;1724441;81;21665;-53
2021/01/15 05:59:39;;;;;;;6.50;1.80;;;;;;;-7.10;72.77;98749.97;1738254;81;21210;-53
2021/01/15 06:02:06;;;;;;;7.07;2.07;;;;;;;-7.05;72.71;98750.85;1740181;81;21210;-53
2021/01/15 06:04:36;;;;;;;6.67;2.20;;;;;;;-7.03;72.22;98754.79;1740895;81;21491;-54
2021/01/15 06:07:12;;;;;;;8.00;3.00;;;;;;;-7.06;72.19;98747.79;1736553;80;21160;-54
2021/01/15 06:09:41;;;;;;;9.83;2.63;;;;;;;-7.05;72.06;98748.67;1739677;80;22675;-53
2021/01/15 06:12:11;;;;;;;8.60;2.83;;;;;;;-7.05;71.82;98743.00;1740101;80;21503;-54
2021/01/15 06:14:49;;;;;;;8.83;2.63;;;;;;;-7.05;71.77;98753.47;1743070;81;21124;-53
2021/01/15 06:17:09;;;;;;;12.23;3.53;;;;;;;-7.04;71.57;98755.66;1742194;80;21123;-53
2021/01/15 06:19:48;;;;;;;9.47;3.07;;;;;;;-7.07;71.51;98757.84;1738753;81;20969;-52
2021/01/15 06:22:44;;;;;;;10.45;5.15;;;;;;;-7.02;71.51;98765.27;1815059;76;27933;-54
2021/01/15 06:25:34;;;;;;;6.43;2.40;;;;;;;-7.02;71.25;98765.27;1800368;77;20959;-54
2021/01/15 06:28:08;;;;;;;7.90;2.37;;;;;;;-6.94;71.05;98766.18;1813211;77;21318;-54
2021/01/15 06:30:36;;;;;;;7.10;2.10;;;;;;;-6.93;70.86;98767.94;1811682;77;21012;-55
2021/01/15 06:33:10;;;;;;;8.87;2.73;;;;;;;-6.91;70.75;98767.52;1793363;77;20945;-54
2021/01/15 06:35:39;;;;;;;6.80;2.10;;;;;;;-6.92;70.22;98772.30;1795068;77;20925;-54
2021/01/15 06:38:12;;;;;;;7.17;2.40;;;;;;;-6.96;70.18;98772.27;1796398;77;21068;-54
2021/01/15 06:40:41;;;;;;;10.60;3.60;;;;;;;-6.99;70.20;98773.14;1793194;77;21276;-54
2021/01/15 06:43:28;;;;;;;7.80;2.10;;;;;;;-6.98;69.73;98781.87;1774281;78;20992;-55
2021/01/15 06:45:59;;;;;;;6.70;1.87;;;;;;;-7.03;69.80;98783.56;1769112;78;21783;-53
2021/01/15 06:48:34;;;;;;;7.83;2.67;;;;;;;-7.08;69.79;98791.40;1772731;78;21108;-52
2021/01/15 06:51:02;;;;;;;12.17;2.97;;;;;;;-7.09;69.87;98794.00;1771371;78;21098;-54
2021/01/15 06:53:38;;;;;;;9.10;3.20;;;;;;;-7.05;69.78;98802.29;1771827;78;21493;-54
2021/01/15 06:56:06;;;;;;;10.97;3.03;;;;;;;-7.07;69.55;98802.30;1769691;78;21427;-54
2021/01/15 06:58:40;;;;;;;9.63;3.17;;;;;;;-7.07;69.44;98807.53;1736657;80;21117;-54
2021/01/15 07:01:22;;;;;;;8.07;2.67;;;;;;;-7.08;69.37;98804.47;1725876;81;21141;-54
2021/01/15 07:04:27;;;;;;;12.03;3.00;;;;;;;-7.07;69.14;98805.35;1771184;79;21108;-53
2021/01/15 07:07:15;;;;;;;7.83;1.73;;;;;;;-7.09;68.85;98804.45;1774673;79;21372;-54
2021/01/15 07:09:45;;;;;;;10.00;2.60;;;;;;;-7.14;68.66;98815.30;1773680;79;21138;-55
2021/01/15 07:12:15;;;;;;;7.63;2.50;;;;;;;-7.20;68.59;98820.06;1774931;79;21118;-53
2021/01/15 07:14:49;;;;;;;11.67;3.03;;;;;;;-7.21;68.62;98825.28;1773318;79;21222;-53
2021/01/15 07:17:37;;;;;;;11.20;2.83;;;;;;;-7.23;68.31;98832.27;1770831;79;21190;-55
2021/01/15 07:20:15;;;;;;;9.00;1.70;;;;;;;-7.30;68.47;98831.31;1769023;79;21369;-56
2021/01/15 07:22:56;;;;;;;6.30;2.00;;;;;;;-7.28;68.40;98829.17;1773987;79;21261;-53
2021/01/15 07:25:23;;;;;;;6.40;2.00;;;;;;;-7.30;68.34;98835.23;1772073;79;21135;-52
2021/01/15 07:27:53;;;;;;;7.40;1.80;;;;;;;-7.32;68.17;98846.14;1770048;79;21107;-55
2021/01/15 07:30:26;;;;;;;4.90;1.87;;;;;;;-7.35;68.34;98852.21;1743294;80;21882;-54
2021/01/15 07:32:57;;;;;;;9.30;2.10;;;;;;;-7.31;68.22;98866.16;1741420;80;21662;-53
2021/01/15 07:35:26;;;;;;;8.13;2.70;;;;;;;-7.27;68.08;98862.30;1768163;79;21212;-55
2021/01/15 07:38:13;;;;;;;5.90;2.47;;;;;;;-7.24;67.75;98864.50;1769625;79;21170;-54
2021/01/15 07:40:41;;;;;;;7.00;1.90;;;;;;;-7.24;67.57;98856.23;1771392;79;21202;-54
2021/01/15 07:43:33;;;;;;;9.43;2.30;;;;;;;-7.26;67.23;98864.48;1771798;79;21222;-53
2021/01/15 07:46:03;;;;;;;5.83;2.00;;;;;;;-7.32;66.92;98860.09;1771161;79;21222;-53
2021/01/15 07:48:31;;;;;;;7.87;2.00;;;;;;;-7.36;67.13;98866.14;1770544;79;21127;-54
2021/01/15 07:50:58;;;;;;;8.80;1.93;;;;;;;-7.33;66.71;98870.53;1771212;79;21160;-53
2021/01/15 07:53:40;;;;;;;6.40;2.13;;;;;;;-7.32;66.42;98876.20;1772953;79;21214;-55
2021/01/15 07:56:08;;;;;;;8.43;2.90;;;;;;;-7.34;66.51;98877.50;1772226;79;21621;-53
2021/01/15 07:58:45;;;;;;;7.00;1.53;;;;;;;-7.33;66.18;98877.95;1773118;79;21195;-53
2021/01/15 08:01:16;;;;;;;9.83;2.97;;;;;;;-7.36;66.11;98885.75;1767620;79;23183;-54
2021/01/15 08:03:49;;;;;;;10.33;2.30;;;;;;;-7.42;66.00;98888.31;1769592;79;21199;-53
2021/01/15 08:06:17;;;;;;;7.20;2.67;;;;;;;-7.45;66.18;98887.40;1769423;79;21171;-52
2021/01/15 08:09:07;;;;;;;8.30;2.77;;;;;;;-7.51;66.07;98899.11;1765723;79;22615;-52
2021/01/15 08:11:36;;;;;;;9.27;2.93;;;;;;;-7.60;66.25;98895.10;1769646;79;22490;-52
2021/01/15 08:14:16;;;;;;;7.87;3.10;;;;;;;-7.61;66.57;98905.11;1766700;79;21893;-53
2021/01/15 08:16:45;;;;;;;8.73;3.50;;;;;;;-7.58;66.48;98922.13;1772911;79;21194;-55
2021/01/15 08:19:15;;;;;;;11.10;3.33;;;;;;;-7.59;66.48;98920.38;1767404;79;21159;-54
2021/01/15 08:21:45;;;;;;;12.83;3.70;;;;;;;-7.59;66.71;98929.09;1769727;79;21163;-53
2021/01/15 08:24:13;;;;;;;11.27;2.33;;;;;;;-7.57;66.60;98927.35;1770448;79;22249;-54
2021/01/15 08:26:52;;;;;;;11.37;3.87;;;;;;;-7.62;66.60;98923.83;1771755;79;21135;-54
2021/01/15 08:29:22;;;;;;;9.73;2.90;;;;;;;-7.62;66.06;98922.95;1770479;79;21175;-52
2021/01/15 08:31:50;;;;;;;8.43;2.83;;;;;;;-7.68;66.30;98923.34;1768202;79;21060;-54
2021/01/15 08:34:19;;;;;;;6.27;1.47;;;;;;;-7.69;65.97;98926.81;1770962;79;21517;-55
2021/01/15 08:36:50;;;;;;;9.20;2.17;;;;;;;-7.71;66.06;98927.22;1772600;79;21455;-52
2021/01/15 08:39:17;;;;;;;6.10;1.90;;;;;;;-7.74;66.77;98939.39;1742903;79;21195;-54
2021/01/15 08:41:45;;;;;;;7.13;3.40;;;;;;;-7.78;66.52;98931.94;1769162;79;21580;-54
2021/01/15 08:44:14;;;;;;;9.60;2.80;;;;;;;-7.74;65.98;98930.25;1775974;79;21202;-54
2021/01/15 08:46:41;;;;;;;7.13;1.70;;;;;;;-7.78;65.82;98932.36;1772511;79;21095;-54
2021/01/15 08:49:09;;;;;;;8.20;2.47;;;;;;;-7.82;65.70;98925.33;1770855;79;21262;-55
2021/01/15 08:51:39;;;;;;;8.37;2.30;;;;;;;-7.80;65.80;98928.84;1769627;79;21533;-51
2021/01/15 08:54:07;;;;;;;5.93;2.00;;;;;;;-7.74;65.75;98931.09;1768903;79;21214;-53
2021/01/15 08:56:48;;;;;;;10.20;2.83;;;;;;;-7.73;65.82;98932.84;1768407;79;21166;-53
2021/01/15 08:59:29;;;;;;;10.63;2.23;;;;;;;-7.65;65.41;98933.80;1770575;79;21386;-53
2021/01/15 09:01:58;;;;;;;7.37;2.23;;;;;;;-7.58;65.30;98940.43;1771279;79;21410;-53
2021/01/15 09:04:29;;;;;;;9.47;2.77;;;;;;;-7.57;64.93;98937.80;1769580;79;21194;-54
2021/01/15 09:07:00;;;;;;;8.57;1.77;;;;;;;-7.56;64.70;98933.45;1768229;79;21130;-52
2021/01/15 09:09:30;;;;;;;4.87;1.67;;;;;;;-7.59;64.30;98935.63;1769972;79;21127;-52
2021/01/15 09:12:03;;;;;;;7.33;1.60;;;;;;;-7.67;64.14;98935.55;1768527;79;21135;-55
2021/01/15 09:14:35;;;;;;;4.17;1.40;;;;;;;-7.72;63.82;98937.65;1738165;80;22083;-53
2021/01/15 09:17:05;;;;;;;7.00;2.47;;;;;;;-7.75;63.93;98941.13;1723490;81;21176;-53
2021/01/15 09:19:34;;;;;;;7.03;2.07;;;;;;;-7.74;64.07;98948.08;1729387;81;21703;-53
2021/01/15 09:24:36;;;;;;;6.63;2.23;;;;;;;-7.56;64.00;98947.41;1872416;75;22141;-54
2021/01/15 09:27:06;;;;;;;6.23;2.00;;;;;;;-7.55;63.29;98943.94;1840534;75;20904;-54
2021/01/15 09:29:35;;;;;;;8.33;2.10;;;;;;;-7.63;63.06;98950.81;1781817;78;22313;-53
2021/01/15 09:32:02;;;;;;;9.93;1.83;;;;;;;-7.71;63.24;98948.55;1750142;80;21024;-55
2021/01/15 09:34:30;;;;;;;6.37;2.00;;;;;;;-7.71;63.38;98953.77;1781305;79;21125;-54
2021/01/15 09:36:57;;;;;;;6.60;1.80;;;;;;;-7.67;63.38;98956.46;1804037;77;21121;-53
2021/01/15 09:39:26;;;;;;;7.40;2.50;;;;;;;-7.59;63.39;98956.54;1803267;78;21501;-53
2021/01/15 09:41:58;;;;;;;7.73;1.97;;;;;;;-7.58;63.19;98959.61;1773163;78;21275;-54
2021/01/15 09:44:28;;;;;;;10.87;2.70;;;;;;;-7.56;63.51;98955.67;1739171;80;22179;-53
2021/01/15 09:47:00;;;;;;;9.20;2.20;;;;;;;-7.49;63.53;98952.29;1741841;80;20952;-53
2021/01/15 09:49:31;;;;;;;8.57;2.63;;;;;;;-7.41;63.17;98953.25;1744600;79;21151;-54
2021/01/15 09:51:58;;;;;;;3.57;1.37;;;;;;;-7.37;62.71;98964.16;1747294;79;21163;-54
2021/01/15 09:54:26;;;;;;;11.83;2.27;;;;;;;-7.40;62.61;98964.16;1744024;79;22120;-54
2021/01/15 09:56:54;;;;;;;5.10;1.77;;;;;;;-7.44;62.65;98959.31;1744981;80;20992;-54
2021/01/15 09:59:22;;;;;;;9.07;2.17;;;;;;;-7.51;62.83;98947.05;1747577;79;21115;-54
2021/01/15 10:01:49;;;;;;;4.63;1.40;;;;;;;-7.56;62.81;98959.16;1747248;79;21131;-52
2021/01/15 10:04:16;;;;;;;7.40;1.80;;;;;;;-7.60;63.06;98957.39;1742903;79;21617;-54
2021/01/15 10:06:45;;;;;;;6.10;1.90;;;;;;;-7.54;63.09;98954.84;1742410;79;22362;-54
2021/01/15 10:09:13;;;;;;;4.70;1.50;;;;;;;-7.50;62.70;98947.49;1811501;77;21249;-52
2021/01/15 10:11:46;;;;;;;7.73;2.13;;;;;;;-7.49;62.91;98947.94;1806777;77;21127;-55
2021/01/15 10:14:17;;;;;;;8.07;1.50;;;;;;;-7.45;62.21;98954.06;1735248;80;21159;-54
2021/01/15 10:16:47;;;;;;;7.43;2.20;;;;;;;-7.46;62.29;98957.53;1744879;80;21108;-53
2021/01/15 10:19:18;;;;;;;6.60;2.00;;;;;;;-7.37;62.20;98955.02;1764663;78;21214;-55
2021/01/15 10:21:45;;;;;;;8.40;2.50;;;;;;;-7.35;61.97;98956.79;1745866;79;21219;-54
2021/01/15 10:24:13;;;;;;;7.77;1.63;;;;;;;-7.39;61.89;98952.80;1757188;78;21159;-52
2021/01/15 10:26:41;;;;;;;6.43;1.93;;;;;;;-7.40;61.61;98949.31;1737882;80;21530;-54
2021/01/15 10:29:13;;;;;;;5.03;1.47;;;;;;;-7.43;61.59;98951.03;1745173;80;21206;-54
2021/01/15 10:31:54;;;;;;;5.60;1.50;;;;;;;-7.44;61.45;98957.13;1737154;80;21382;-54
2021/01/15 10:34:23;;;;;;;6.23;2.40;;;;;;;-7.49;61.18;98956.21;1771053;78;22000;-53
2021/01/15 10:36:51;;;;;;;7.67;2.17;;;;;;;-7.60;61.43;98953.48;1733759;80;21219;-52
2021/01/15 10:39:19;;;;;;;9.50;2.03;;;;;;;-7.61;61.40;98953.45;1742202;80;21127;-52
2021/01/15 10:41:51;;;;;;;4.20;1.70;;;;;;;-7.67;60.96;98952.97;1749039;80;21117;-53
2021/01/15 10:44:19;;;;;;;8.77;2.00;;;;;;;-7.75;61.34;98950.70;1740606;80;21453;-53
2021/01/15 10:46:49;;;;;;;7.83;2.03;;;;;;;-7.81;61.70;98950.60;1735466;80;21188;-53
2021/01/15 10:49:19;;;;;;;5.17;1.50;;;;;;;-7.81;62.14;98954.09;1760694;78;21128;-52
2021/01/15 10:51:55;;;;;;;8.37;1.73;;;;;;;-7.80;61.80;98949.75;1738605;80;21219;-53
2021/01/15 10:54:23;;;;;;;9.30;2.40;;;;;;;-7.80;61.87;98949.32;1764961;78;21179;-51
2021/01/15 10:56:53;;;;;;;9.63;2.53;;;;;;;-7.77;61.78;98947.19;1754075;79;21215;-53
2021/01/15 10:59:22;;;;;;;7.33;2.20;;;;;;;-7.69;61.94;98955.98;1750818;79;21213;-53
2021/01/15 11:01:51;;;;;;;9.40;2.17;;;;;;;-7.63;61.65;98953.43;1748937;79;21198;-53
2021/01/15 11:04:19;;;;;;;6.93;1.93;;;;;;;-7.58;61.40;98947.84;1753270;79;21207;-54
2021/01/15 11:06:53;;;;;;;4.77;1.40;;;;;;;-7.52;61.55;98953.55;1749678;79;21207;-53
2021/01/15 11:09:22;;;;;;;9.08;2.17;;;;;;;-7.45;61.50;98948.41;1749827;79;22323;-54
2021/01/15 11:11:52;;;;;;;4.30;1.63;;;;;;;-7.35;61.19;98948.95;1745018;79;21553;-56
2021/01/15 11:14:19;;;;;;;6.73;1.87;;;;;;;-7.25;61.28;98952.53;1749404;79;21188;-52
2021/01/15 11:16:47;;;;;;;5.20;1.60;;;;;;;-7.15;61.22;98950.45;1748229;79;22136;-54
2021/01/15 11:19:14;;;;;;;8.87;2.13;;;;;;;-7.08;60.38;98947.45;1751698;79;21234;-54
2021/01/15 11:21:41;;;;;;;4.63;1.50;;;;;;;-7.04;60.42;98946.59;1750120;79;21819;-55
2021/01/15 11:24:11;;;;;;;7.40;2.93;;;;;;;-7.02;60.24;98942.27;1742359;79;21539;-53
2021/01/15 11:26:39;;;;;;;7.93;2.70;;;;;;;-7.05;60.55;98945.72;1743531;79;21170;-53
2021/01/15 11:29:08;;;;;;;8.27;1.87;;;;;;;-6.99;60.53;98944.92;1754993;79;21798;-55
2021/01/15 11:31:36;;;;;;;5.93;1.20;;;;;;;-6.94;60.73;98946.70;1747256;79;21190;-52
2021/01/15 11:34:03;;;;;;;4.60;1.27;;;;;;;-6.82;60.85;98939.39;1750315;79;21378;-54
2021/01/15 11:36:31;;;;;;;5.47;1.57;;;;;;;-6.77;60.93;98943.34;1745056;79;21229;-53
2021/01/15 11:39:06;;;;;;;5.83;1.30;;;;;;;-6.71;61.25;98936.83;1743983;79;21178;-54
2021/01/15 11:41:34;;;;;;;8.60;2.13;;;;;;;-6.64;61.04;98933.41;1765624;78;21171;-53
2021/01/15 11:44:01;;;;;;;3.73;1.40;;;;;;;-6.57;60.98;98936.08;1737753;80;21885;-54
2021/01/15 11:46:29;;;;;;;5.60;1.63;;;;;;;-6.56;60.28;98935.66;1735867;80;21366;-53
2021/01/15 11:48:59;;;;;;;4.00;1.27;;;;;;;-6.59;60.77;98939.12;1738151;80;21569;-52
2021/01/15 11:51:27;;;;;;;5.53;1.63;;;;;;;-6.59;60.41;98943.47;1739479;80;21561;-53
2021/01/15 11:53:55;;;;;;;3.67;1.30;;;;;;;-6.66;60.58;98941.25;1737186;80;21648;-53